sensor_id;sensor_type;location;lat;lon;timestamp;P1;durP1;ratioP1;P2;durP2;ratioP2
8958;SDS011;4514;49.476;8.484;2022-07-19T00:00:05;9.43;;;6.47;;
8958;SDS011;4514;49.476;8.484;2022-07-19T00:02:37;9.98;;;5.70;;
8958;SDS011;4514;49.476;8.484;2022-07-19T00:05:05;6.95;;;5.45;;
8958;SDS011;4514;49.476;8.484;2022-07-19T00:07:32;7.65;;;6.20;;
8958;SDS011;4514;49.476;8.484;2022-07-19T00:09:57;12.02;;;5.53;;
8958;SDS011;4514;49.476;8.484;2022-07-19T00:12:23;6.40;;;5.30;;
8958;SDS011;4514;49.476;8.484;2022-07-19T00:14:51;9.25;;;5.43;;
8958;SDS011;4514;49.476;8.484;2022-07-19T00:17:18;9.23;;;5.65;;
8958;SDS011;4514;49.476;8.484;2022-07-19T00:19:46;8.48;;;5.38;;
8958;SDS011;4514;49.476;8.484;2022-07-19T00:22:11;9.07;;;5.28;;
8958;SDS011;4514;49.476;8.484;2022-07-19T00:24:37;8.75;;;5.88;;
8958;SDS011;4514;49.476;8.484;2022-07-19T00:27:05;8.35;;;5.50;;
8958;SDS011;4514;49.476;8.484;2022-07-19T00:29:32;7.35;;;5.32;;
8958;SDS011;4514;49.476;8.484;2022-07-19T00:32:00;5.47;;;4.97;;
8958;SDS011;4514;49.476;8.484;2022-07-19T00:34:28;8.32;;;5.95;;
8958;SDS011;4514;49.476;8.484;2022-07-19T00:36:53;11.25;;;5.68;;
8958;SDS011;4514;49.476;8.484;2022-07-19T00:39:18;10.18;;;5.78;;
8958;SDS011;4514;49.476;8.484;2022-07-19T00:41:44;8.80;;;5.07;;
8958;SDS011;4514;49.476;8.484;2022-07-19T00:44:09;12.10;;;5.45;;
8958;SDS011;4514;49.476;8.484;2022-07-19T00:46:35;10.02;;;6.30;;
8958;SDS011;4514;49.476;8.484;2022-07-19T00:49:03;14.93;;;6.38;;
8958;SDS011;4514;49.476;8.484;2022-07-19T00:51:34;18.55;;;6.72;;
8958;SDS011;4514;49.476;8.484;2022-07-19T00:54:03;11.15;;;5.93;;
8958;SDS011;4514;49.476;8.484;2022-07-19T00:56:29;14.73;;;6.20;;
8958;SDS011;4514;49.476;8.484;2022-07-19T00:58:56;13.23;;;5.80;;
8958;SDS011;4514;49.476;8.484;2022-07-19T01:01:26;10.93;;;5.43;;
8958;SDS011;4514;49.476;8.484;2022-07-19T01:03:53;7.90;;;4.72;;
8958;SDS011;4514;49.476;8.484;2022-07-19T01:06:19;11.75;;;5.30;;
8958;SDS011;4514;49.476;8.484;2022-07-19T01:08:46;11.30;;;4.95;;
8958;SDS011;4514;49.476;8.484;2022-07-19T01:11:14;9.95;;;5.05;;
8958;SDS011;4514;49.476;8.484;2022-07-19T01:13:39;9.88;;;5.18;;
8958;SDS011;4514;49.476;8.484;2022-07-19T01:16:07;7.25;;;4.60;;
8958;SDS011;4514;49.476;8.484;2022-07-19T01:18:32;7.15;;;4.65;;
8958;SDS011;4514;49.476;8.484;2022-07-19T01:21:00;8.40;;;4.60;;
8958;SDS011;4514;49.476;8.484;2022-07-19T01:23:29;11.35;;;4.50;;
8958;SDS011;4514;49.476;8.484;2022-07-19T01:25:54;10.50;;;4.93;;
8958;SDS011;4514;49.476;8.484;2022-07-19T01:28:19;10.55;;;4.90;;
8958;SDS011;4514;49.476;8.484;2022-07-19T01:30:45;8.82;;;5.03;;
8958;SDS011;4514;49.476;8.484;2022-07-19T01:33:12;9.77;;;4.45;;
8958;SDS011;4514;49.476;8.484;2022-07-19T01:35:38;8.77;;;4.75;;
8958;SDS011;4514;49.476;8.484;2022-07-19T01:38:03;9.30;;;5.00;;
8958;SDS011;4514;49.476;8.484;2022-07-19T01:40:29;7.55;;;5.20;;
8958;SDS011;4514;49.476;8.484;2022-07-19T01:42:56;8.90;;;4.93;;
8958;SDS011;4514;49.476;8.484;2022-07-19T01:45:22;7.75;;;5.10;;
8958;SDS011;4514;49.476;8.484;2022-07-19T01:47:48;10.55;;;5.20;;
8958;SDS011;4514;49.476;8.484;2022-07-19T01:50:14;9.00;;;5.30;;
8958;SDS011;4514;49.476;8.484;2022-07-19T01:52:41;7.75;;;5.20;;
8958;SDS011;4514;49.476;8.484;2022-07-19T01:55:06;7.70;;;4.80;;
8958;SDS011;4514;49.476;8.484;2022-07-19T01:57:32;8.68;;;5.22;;
8958;SDS011;4514;49.476;8.484;2022-07-19T01:59:58;10.77;;;5.32;;
8958;SDS011;4514;49.476;8.484;2022-07-19T02:02:23;10.40;;;5.40;;
8958;SDS011;4514;49.476;8.484;2022-07-19T02:04:51;10.73;;;5.10;;
8958;SDS011;4514;49.476;8.484;2022-07-19T02:07:16;9.80;;;4.90;;
8958;SDS011;4514;49.476;8.484;2022-07-19T02:09:42;10.50;;;4.85;;
8958;SDS011;4514;49.476;8.484;2022-07-19T02:12:08;10.00;;;5.45;;
8958;SDS011;4514;49.476;8.484;2022-07-19T02:14:35;11.48;;;5.28;;
8958;SDS011;4514;49.476;8.484;2022-07-19T02:17:03;11.95;;;5.65;;
8958;SDS011;4514;49.476;8.484;2022-07-19T02:19:33;11.70;;;5.22;;
8958;SDS011;4514;49.476;8.484;2022-07-19T02:21:59;10.57;;;5.00;;
8958;SDS011;4514;49.476;8.484;2022-07-19T02:24:24;9.10;;;5.57;;
8958;SDS011;4514;49.476;8.484;2022-07-19T02:26:52;11.45;;;5.40;;
8958;SDS011;4514;49.476;8.484;2022-07-19T02:29:19;8.25;;;5.00;;
8958;SDS011;4514;49.476;8.484;2022-07-19T02:31:45;9.95;;;5.95;;
8958;SDS011;4514;49.476;8.484;2022-07-19T02:34:10;12.50;;;5.43;;
8958;SDS011;4514;49.476;8.484;2022-07-19T02:36:36;8.88;;;5.97;;
8958;SDS011;4514;49.476;8.484;2022-07-19T02:39:04;10.18;;;6.32;;
8958;SDS011;4514;49.476;8.484;2022-07-19T02:41:31;13.93;;;6.50;;
8958;SDS011;4514;49.476;8.484;2022-07-19T02:44:01;12.85;;;6.93;;
8958;SDS011;4514;49.476;8.484;2022-07-19T02:46:31;10.90;;;6.18;;
8958;SDS011;4514;49.476;8.484;2022-07-19T02:48:59;8.45;;;6.18;;
8958;SDS011;4514;49.476;8.484;2022-07-19T02:51:25;10.48;;;5.43;;
8958;SDS011;4514;49.476;8.484;2022-07-19T02:53:51;7.55;;;5.47;;
8958;SDS011;4514;49.476;8.484;2022-07-19T02:56:16;11.50;;;5.32;;
8958;SDS011;4514;49.476;8.484;2022-07-19T02:58:44;8.70;;;5.07;;
8958;SDS011;4514;49.476;8.484;2022-07-19T03:01:12;9.35;;;5.10;;
8958;SDS011;4514;49.476;8.484;2022-07-19T03:03:42;10.85;;;5.47;;
8958;SDS011;4514;49.476;8.484;2022-07-19T03:06:12;8.95;;;4.90;;
8958;SDS011;4514;49.476;8.484;2022-07-19T03:08:44;8.10;;;5.05;;
8958;SDS011;4514;49.476;8.484;2022-07-19T03:11:12;8.00;;;4.80;;
8958;SDS011;4514;49.476;8.484;2022-07-19T03:13:37;9.63;;;5.32;;
8958;SDS011;4514;49.476;8.484;2022-07-19T03:16:03;9.23;;;5.13;;
8958;SDS011;4514;49.476;8.484;2022-07-19T03:18:28;8.88;;;4.85;;
8958;SDS011;4514;49.476;8.484;2022-07-19T03:20:54;9.63;;;4.88;;
8958;SDS011;4514;49.476;8.484;2022-07-19T03:23:30;9.20;;;4.97;;
8958;SDS011;4514;49.476;8.484;2022-07-19T03:25:56;8.15;;;5.32;;
8958;SDS011;4514;49.476;8.484;2022-07-19T03:28:24;6.57;;;4.55;;
8958;SDS011;4514;49.476;8.484;2022-07-19T03:30:49;8.15;;;5.30;;
8958;SDS011;4514;49.476;8.484;2022-07-19T03:33:15;8.10;;;5.38;;
8958;SDS011;4514;49.476;8.484;2022-07-19T03:35:43;8.27;;;5.57;;
8958;SDS011;4514;49.476;8.484;2022-07-19T03:38:24;7.68;;;5.25;;
8958;SDS011;4514;49.476;8.484;2022-07-19T03:40:49;10.85;;;5.68;;
8958;SDS011;4514;49.476;8.484;2022-07-19T03:43:15;10.77;;;5.50;;
8958;SDS011;4514;49.476;8.484;2022-07-19T03:45:41;10.02;;;6.38;;
8958;SDS011;4514;49.476;8.484;2022-07-19T03:48:10;8.13;;;5.10;;
8958;SDS011;4514;49.476;8.484;2022-07-19T03:50:42;11.68;;;6.10;;
8958;SDS011;4514;49.476;8.484;2022-07-19T03:53:08;6.53;;;5.88;;
8958;SDS011;4514;49.476;8.484;2022-07-19T03:55:33;7.40;;;5.95;;
8958;SDS011;4514;49.476;8.484;2022-07-19T03:58:01;9.80;;;5.80;;
8958;SDS011;4514;49.476;8.484;2022-07-19T04:00:26;10.45;;;6.18;;
8958;SDS011;4514;49.476;8.484;2022-07-19T04:02:52;10.13;;;6.50;;
8958;SDS011;4514;49.476;8.484;2022-07-19T04:05:17;12.90;;;6.85;;
8958;SDS011;4514;49.476;8.484;2022-07-19T04:07:42;10.20;;;6.28;;
8958;SDS011;4514;49.476;8.484;2022-07-19T04:10:10;10.82;;;5.90;;
8958;SDS011;4514;49.476;8.484;2022-07-19T04:12:36;10.43;;;6.50;;
8958;SDS011;4514;49.476;8.484;2022-07-19T04:15:03;13.05;;;6.45;;
8958;SDS011;4514;49.476;8.484;2022-07-19T04:17:32;10.10;;;5.95;;
8958;SDS011;4514;49.476;8.484;2022-07-19T04:19:59;9.52;;;5.82;;
8958;SDS011;4514;49.476;8.484;2022-07-19T04:22:25;12.10;;;5.93;;
8958;SDS011;4514;49.476;8.484;2022-07-19T04:24:50;12.63;;;5.75;;
8958;SDS011;4514;49.476;8.484;2022-07-19T04:27:18;12.45;;;6.40;;
8958;SDS011;4514;49.476;8.484;2022-07-19T04:29:43;9.63;;;5.90;;
8958;SDS011;4514;49.476;8.484;2022-07-19T04:32:13;9.75;;;5.60;;
8958;SDS011;4514;49.476;8.484;2022-07-19T04:34:39;9.25;;;5.30;;
8958;SDS011;4514;49.476;8.484;2022-07-19T04:37:04;9.07;;;5.38;;
8958;SDS011;4514;49.476;8.484;2022-07-19T04:39:30;8.82;;;4.95;;
8958;SDS011;4514;49.476;8.484;2022-07-19T04:41:55;7.05;;;4.57;;
8958;SDS011;4514;49.476;8.484;2022-07-19T04:44:23;9.93;;;5.43;;
8958;SDS011;4514;49.476;8.484;2022-07-19T04:46:49;8.85;;;4.90;;
8958;SDS011;4514;49.476;8.484;2022-07-19T04:49:14;7.50;;;4.50;;
8958;SDS011;4514;49.476;8.484;2022-07-19T04:51:42;9.13;;;5.00;;
8958;SDS011;4514;49.476;8.484;2022-07-19T04:54:07;8.18;;;5.13;;
8958;SDS011;4514;49.476;8.484;2022-07-19T04:56:32;11.13;;;5.05;;
8958;SDS011;4514;49.476;8.484;2022-07-19T04:59:03;12.27;;;5.03;;
8958;SDS011;4514;49.476;8.484;2022-07-19T05:01:31;12.95;;;5.40;;
8958;SDS011;4514;49.476;8.484;2022-07-19T05:03:56;11.13;;;5.60;;
8958;SDS011;4514;49.476;8.484;2022-07-19T05:06:22;12.43;;;5.78;;
8958;SDS011;4514;49.476;8.484;2022-07-19T05:08:50;11.20;;;5.80;;
8958;SDS011;4514;49.476;8.484;2022-07-19T05:11:16;9.82;;;5.50;;
8958;SDS011;4514;49.476;8.484;2022-07-19T05:13:42;8.85;;;5.97;;
8958;SDS011;4514;49.476;8.484;2022-07-19T05:16:07;11.20;;;6.28;;
8958;SDS011;4514;49.476;8.484;2022-07-19T05:18:33;11.38;;;6.18;;
8958;SDS011;4514;49.476;8.484;2022-07-19T05:21:01;10.93;;;6.18;;
8958;SDS011;4514;49.476;8.484;2022-07-19T05:23:26;11.75;;;6.00;;
8958;SDS011;4514;49.476;8.484;2022-07-19T05:25:54;9.05;;;6.05;;
8958;SDS011;4514;49.476;8.484;2022-07-19T05:28:24;9.23;;;5.97;;
8958;SDS011;4514;49.476;8.484;2022-07-19T05:30:54;9.73;;;5.70;;
8958;SDS011;4514;49.476;8.484;2022-07-19T05:33:21;11.23;;;6.32;;
8958;SDS011;4514;49.476;8.484;2022-07-19T05:35:47;9.80;;;6.00;;
8958;SDS011;4514;49.476;8.484;2022-07-19T05:38:21;13.65;;;5.72;;
8958;SDS011;4514;49.476;8.484;2022-07-19T05:40:46;11.73;;;5.82;;
8958;SDS011;4514;49.476;8.484;2022-07-19T05:43:13;10.82;;;6.00;;
8958;SDS011;4514;49.476;8.484;2022-07-19T05:45:39;7.90;;;5.07;;
8958;SDS011;4514;49.476;8.484;2022-07-19T05:48:05;10.05;;;5.47;;
8958;SDS011;4514;49.476;8.484;2022-07-19T05:50:32;8.45;;;5.38;;
8958;SDS011;4514;49.476;8.484;2022-07-19T05:53:00;10.57;;;5.80;;
8958;SDS011;4514;49.476;8.484;2022-07-19T05:55:25;9.25;;;5.82;;
8958;SDS011;4514;49.476;8.484;2022-07-19T05:57:53;7.28;;;5.32;;
8958;SDS011;4514;49.476;8.484;2022-07-19T06:00:18;7.75;;;5.38;;
8958;SDS011;4514;49.476;8.484;2022-07-19T06:02:49;10.13;;;4.90;;
8958;SDS011;4514;49.476;8.484;2022-07-19T06:05:16;8.87;;;5.20;;
8958;SDS011;4514;49.476;8.484;2022-07-19T06:07:42;10.90;;;5.03;;
8958;SDS011;4514;49.476;8.484;2022-07-19T06:10:07;12.82;;;5.32;;
8958;SDS011;4514;49.476;8.484;2022-07-19T06:12:33;12.02;;;4.97;;
8958;SDS011;4514;49.476;8.484;2022-07-19T06:14:59;11.43;;;4.68;;
8958;SDS011;4514;49.476;8.484;2022-07-19T06:17:27;8.20;;;4.82;;
8958;SDS011;4514;49.476;8.484;2022-07-19T06:19:52;8.70;;;5.25;;
8958;SDS011;4514;49.476;8.484;2022-07-19T06:22:17;7.75;;;5.28;;
8958;SDS011;4514;49.476;8.484;2022-07-19T06:24:43;8.63;;;5.00;;
8958;SDS011;4514;49.476;8.484;2022-07-19T06:27:08;10.05;;;4.70;;
8958;SDS011;4514;49.476;8.484;2022-07-19T06:29:34;10.52;;;5.32;;
8958;SDS011;4514;49.476;8.484;2022-07-19T06:31:59;15.25;;;10.77;;
8958;SDS011;4514;49.476;8.484;2022-07-19T06:34:24;8.18;;;5.15;;
8958;SDS011;4514;49.476;8.484;2022-07-19T06:36:52;12.52;;;5.30;;
8958;SDS011;4514;49.476;8.484;2022-07-19T06:39:20;10.52;;;5.30;;
8958;SDS011;4514;49.476;8.484;2022-07-19T06:41:45;10.05;;;5.05;;
8958;SDS011;4514;49.476;8.484;2022-07-19T06:44:15;8.55;;;5.50;;
8958;SDS011;4514;49.476;8.484;2022-07-19T06:46:42;8.93;;;5.25;;
8958;SDS011;4514;49.476;8.484;2022-07-19T06:49:08;9.27;;;5.78;;
8958;SDS011;4514;49.476;8.484;2022-07-19T06:51:35;16.00;;;5.78;;
8958;SDS011;4514;49.476;8.484;2022-07-19T06:54:01;11.88;;;6.03;;
8958;SDS011;4514;49.476;8.484;2022-07-19T06:56:29;19.10;;;6.43;;
8958;SDS011;4514;49.476;8.484;2022-07-19T06:58:54;13.20;;;6.45;;
8958;SDS011;4514;49.476;8.484;2022-07-19T07:01:20;20.23;;;6.13;;
8958;SDS011;4514;49.476;8.484;2022-07-19T07:03:47;16.63;;;6.88;;
8958;SDS011;4514;49.476;8.484;2022-07-19T07:06:15;21.42;;;7.25;;
8958;SDS011;4514;49.476;8.484;2022-07-19T07:08:43;21.00;;;6.90;;
8958;SDS011;4514;49.476;8.484;2022-07-19T07:11:08;16.92;;;6.93;;
8958;SDS011;4514;49.476;8.484;2022-07-19T07:13:36;20.17;;;7.28;;
8958;SDS011;4514;49.476;8.484;2022-07-19T07:16:03;18.15;;;6.55;;
8958;SDS011;4514;49.476;8.484;2022-07-19T07:18:29;9.27;;;5.85;;
8958;SDS011;4514;49.476;8.484;2022-07-19T07:20:59;16.75;;;6.43;;
8958;SDS011;4514;49.476;8.484;2022-07-19T07:23:24;17.75;;;6.50;;
8958;SDS011;4514;49.476;8.484;2022-07-19T07:25:50;14.98;;;6.13;;
8958;SDS011;4514;49.476;8.484;2022-07-19T07:28:26;13.13;;;5.65;;
8958;SDS011;4514;49.476;8.484;2022-07-19T07:30:59;15.70;;;5.78;;
8958;SDS011;4514;49.476;8.484;2022-07-19T07:33:24;13.65;;;5.50;;
8958;SDS011;4514;49.476;8.484;2022-07-19T07:35:52;12.40;;;4.90;;
8958;SDS011;4514;49.476;8.484;2022-07-19T07:38:17;13.10;;;5.78;;
8958;SDS011;4514;49.476;8.484;2022-07-19T07:40:43;12.35;;;5.22;;
8958;SDS011;4514;49.476;8.484;2022-07-19T07:43:11;10.88;;;5.25;;
8958;SDS011;4514;49.476;8.484;2022-07-19T07:45:39;14.07;;;4.90;;
8958;SDS011;4514;49.476;8.484;2022-07-19T07:48:06;11.88;;;5.38;;
8958;SDS011;4514;49.476;8.484;2022-07-19T07:50:32;10.55;;;5.57;;
8958;SDS011;4514;49.476;8.484;2022-07-19T07:52:57;10.23;;;4.90;;
8958;SDS011;4514;49.476;8.484;2022-07-19T07:55:23;12.18;;;5.20;;
8958;SDS011;4514;49.476;8.484;2022-07-19T07:57:48;10.15;;;5.25;;
8958;SDS011;4514;49.476;8.484;2022-07-19T08:00:14;14.60;;;5.80;;
8958;SDS011;4514;49.476;8.484;2022-07-19T08:02:40;15.75;;;5.55;;
8958;SDS011;4514;49.476;8.484;2022-07-19T08:05:09;13.25;;;5.63;;
8958;SDS011;4514;49.476;8.484;2022-07-19T08:07:35;13.93;;;5.57;;
8958;SDS011;4514;49.476;8.484;2022-07-19T08:10:01;12.40;;;5.40;;
8958;SDS011;4514;49.476;8.484;2022-07-19T08:12:27;10.90;;;5.78;;
8958;SDS011;4514;49.476;8.484;2022-07-19T08:14:53;10.43;;;5.22;;
8958;SDS011;4514;49.476;8.484;2022-07-19T08:17:18;11.95;;;5.53;;
8958;SDS011;4514;49.476;8.484;2022-07-19T08:19:43;12.45;;;5.93;;
8958;SDS011;4514;49.476;8.484;2022-07-19T08:22:09;8.93;;;5.53;;
8958;SDS011;4514;49.476;8.484;2022-07-19T08:24:37;19.00;;;6.68;;
8958;SDS011;4514;49.476;8.484;2022-07-19T08:27:02;15.52;;;5.70;;
8958;SDS011;4514;49.476;8.484;2022-07-19T08:29:27;11.20;;;5.40;;
8958;SDS011;4514;49.476;8.484;2022-07-19T08:31:53;10.32;;;5.63;;
8958;SDS011;4514;49.476;8.484;2022-07-19T08:34:18;14.18;;;5.70;;
8958;SDS011;4514;49.476;8.484;2022-07-19T08:36:48;11.43;;;5.10;;
8958;SDS011;4514;49.476;8.484;2022-07-19T08:39:14;14.55;;;5.28;;
8958;SDS011;4514;49.476;8.484;2022-07-19T08:41:42;9.75;;;4.45;;
8958;SDS011;4514;49.476;8.484;2022-07-19T08:44:07;9.30;;;4.10;;
8958;SDS011;4514;49.476;8.484;2022-07-19T08:46:33;7.63;;;4.18;;
8958;SDS011;4514;49.476;8.484;2022-07-19T08:48:59;11.00;;;4.25;;
8958;SDS011;4514;49.476;8.484;2022-07-19T08:51:24;9.57;;;3.50;;
8958;SDS011;4514;49.476;8.484;2022-07-19T08:53:50;8.77;;;3.60;;
8958;SDS011;4514;49.476;8.484;2022-07-19T08:56:19;7.18;;;2.90;;
8958;SDS011;4514;49.476;8.484;2022-07-19T08:59:03;4.57;;;3.15;;
8958;SDS011;4514;49.476;8.484;2022-07-19T09:01:30;8.40;;;2.95;;
8958;SDS011;4514;49.476;8.484;2022-07-19T09:04:29;3.88;;;3.13;;
8958;SDS011;4514;49.476;8.484;2022-07-19T09:06:53;4.70;;;3.10;;
8958;SDS011;4514;49.476;8.484;2022-07-19T09:09:41;6.57;;;3.08;;
8958;SDS011;4514;49.476;8.484;2022-07-19T09:12:07;6.78;;;3.20;;
8958;SDS011;4514;49.476;8.484;2022-07-19T09:14:34;8.55;;;2.90;;
8958;SDS011;4514;49.476;8.484;2022-07-19T09:19:31;8.23;;;3.30;;
8958;SDS011;4514;49.476;8.484;2022-07-19T09:22:05;5.90;;;3.92;;
8958;SDS011;4514;49.476;8.484;2022-07-19T09:24:35;5.30;;;2.90;;
8958;SDS011;4514;49.476;8.484;2022-07-19T09:27:06;5.68;;;2.75;;
8958;SDS011;4514;49.476;8.484;2022-07-19T09:29:32;8.18;;;2.80;;
8958;SDS011;4514;49.476;8.484;2022-07-19T09:32:09;2.78;;;2.58;;
8958;SDS011;4514;49.476;8.484;2022-07-19T09:34:37;5.07;;;3.20;;
8958;SDS011;4514;49.476;8.484;2022-07-19T09:39:35;5.22;;;2.70;;
8958;SDS011;4514;49.476;8.484;2022-07-19T09:42:00;9.68;;;2.67;;
8958;SDS011;4514;49.476;8.484;2022-07-19T09:44:28;8.27;;;2.95;;
8958;SDS011;4514;49.476;8.484;2022-07-19T09:46:54;2.72;;;2.30;;
8958;SDS011;4514;49.476;8.484;2022-07-19T09:49:19;5.65;;;2.40;;
8958;SDS011;4514;49.476;8.484;2022-07-19T09:51:46;4.70;;;2.72;;
8958;SDS011;4514;49.476;8.484;2022-07-19T09:54:13;4.40;;;2.42;;
8958;SDS011;4514;49.476;8.484;2022-07-19T09:56:41;5.63;;;2.50;;
8958;SDS011;4514;49.476;8.484;2022-07-19T09:59:13;3.55;;;2.38;;
8958;SDS011;4514;49.476;8.484;2022-07-19T10:01:41;6.07;;;2.40;;
8958;SDS011;4514;49.476;8.484;2022-07-19T10:04:12;3.83;;;2.33;;
8958;SDS011;4514;49.476;8.484;2022-07-19T10:06:39;3.53;;;2.50;;
8958;SDS011;4514;49.476;8.484;2022-07-19T10:09:06;2.45;;;2.25;;
8958;SDS011;4514;49.476;8.484;2022-07-19T10:11:33;5.60;;;2.45;;
8958;SDS011;4514;49.476;8.484;2022-07-19T10:13:59;3.55;;;2.17;;
8958;SDS011;4514;49.476;8.484;2022-07-19T10:16:31;6.15;;;2.30;;
8958;SDS011;4514;49.476;8.484;2022-07-19T10:21:54;2.83;;;2.22;;
8958;SDS011;4514;49.476;8.484;2022-07-19T10:27:11;3.78;;;2.28;;
8958;SDS011;4514;49.476;8.484;2022-07-19T10:29:46;4.47;;;2.30;;
8958;SDS011;4514;49.476;8.484;2022-07-19T10:32:14;2.38;;;2.17;;
8958;SDS011;4514;49.476;8.484;2022-07-19T10:34:41;3.05;;;2.40;;
8958;SDS011;4514;49.476;8.484;2022-07-19T10:37:07;2.60;;;2.35;;
8958;SDS011;4514;49.476;8.484;2022-07-19T10:39:33;3.13;;;2.42;;
8958;SDS011;4514;49.476;8.484;2022-07-19T10:42:07;8.23;;;2.58;;
8958;SDS011;4514;49.476;8.484;2022-07-19T10:47:20;4.80;;;2.50;;
8958;SDS011;4514;49.476;8.484;2022-07-19T10:50:06;3.67;;;2.47;;
8958;SDS011;4514;49.476;8.484;2022-07-19T10:57:46;2.80;;;2.20;;
8958;SDS011;4514;49.476;8.484;2022-07-19T11:02:49;3.85;;;2.15;;
8958;SDS011;4514;49.476;8.484;2022-07-19T11:05:26;4.57;;;2.10;;
8958;SDS011;4514;49.476;8.484;2022-07-19T11:07:57;4.32;;;2.58;;
8958;SDS011;4514;49.476;8.484;2022-07-19T11:10:25;2.95;;;2.30;;
8958;SDS011;4514;49.476;8.484;2022-07-19T11:12:52;5.60;;;2.20;;
8958;SDS011;4514;49.476;8.484;2022-07-19T11:15:19;4.20;;;2.08;;
8958;SDS011;4514;49.476;8.484;2022-07-19T11:17:55;5.35;;;2.30;;
8958;SDS011;4514;49.476;8.484;2022-07-19T11:20:28;4.65;;;2.65;;
8958;SDS011;4514;49.476;8.484;2022-07-19T11:22:55;4.30;;;2.38;;
8958;SDS011;4514;49.476;8.484;2022-07-19T11:25:28;3.60;;;2.33;;
8958;SDS011;4514;49.476;8.484;2022-07-19T11:27:54;4.18;;;2.10;;
8958;SDS011;4514;49.476;8.484;2022-07-19T11:30:21;3.13;;;2.13;;
8958;SDS011;4514;49.476;8.484;2022-07-19T11:32:55;5.22;;;2.40;;
8958;SDS011;4514;49.476;8.484;2022-07-19T11:35:22;4.80;;;2.45;;
8958;SDS011;4514;49.476;8.484;2022-07-19T11:37:47;4.65;;;2.20;;
8958;SDS011;4514;49.476;8.484;2022-07-19T11:40:15;4.43;;;2.28;;
8958;SDS011;4514;49.476;8.484;2022-07-19T11:42:44;3.92;;;2.42;;
8958;SDS011;4514;49.476;8.484;2022-07-19T11:47:43;4.43;;;2.10;;
8958;SDS011;4514;49.476;8.484;2022-07-19T11:50:10;2.60;;;2.38;;
8958;SDS011;4514;49.476;8.484;2022-07-19T11:52:41;2.22;;;2.03;;
8958;SDS011;4514;49.476;8.484;2022-07-19T11:55:22;4.22;;;2.42;;
8958;SDS011;4514;49.476;8.484;2022-07-19T11:57:52;4.75;;;2.33;;
8958;SDS011;4514;49.476;8.484;2022-07-19T12:00:18;5.63;;;2.28;;
8958;SDS011;4514;49.476;8.484;2022-07-19T12:02:51;4.32;;;2.47;;
8958;SDS011;4514;49.476;8.484;2022-07-19T12:05:17;3.25;;;2.55;;
8958;SDS011;4514;49.476;8.484;2022-07-19T12:07:49;3.08;;;2.40;;
8958;SDS011;4514;49.476;8.484;2022-07-19T12:10:31;3.78;;;2.35;;
8958;SDS011;4514;49.476;8.484;2022-07-19T12:13:00;6.03;;;2.50;;
8958;SDS011;4514;49.476;8.484;2022-07-19T12:15:26;3.90;;;2.50;;
8958;SDS011;4514;49.476;8.484;2022-07-19T12:17:57;3.25;;;2.40;;
8958;SDS011;4514;49.476;8.484;2022-07-19T12:20:23;3.08;;;2.47;;
8958;SDS011;4514;49.476;8.484;2022-07-19T12:22:48;3.65;;;2.28;;
8958;SDS011;4514;49.476;8.484;2022-07-19T12:25:16;4.10;;;2.72;;
8958;SDS011;4514;49.476;8.484;2022-07-19T12:28:06;3.17;;;2.47;;
8958;SDS011;4514;49.476;8.484;2022-07-19T12:30:31;3.78;;;2.45;;
8958;SDS011;4514;49.476;8.484;2022-07-19T12:33:08;4.10;;;2.20;;
8958;SDS011;4514;49.476;8.484;2022-07-19T12:35:42;4.78;;;2.10;;
8958;SDS011;4514;49.476;8.484;2022-07-19T12:38:10;4.75;;;2.63;;
8958;SDS011;4514;49.476;8.484;2022-07-19T12:40:37;3.83;;;2.58;;
8958;SDS011;4514;49.476;8.484;2022-07-19T12:43:04;4.60;;;2.67;;
8958;SDS011;4514;49.476;8.484;2022-07-19T12:47:56;2.75;;;2.53;;
8958;SDS011;4514;49.476;8.484;2022-07-19T12:52:59;3.50;;;2.47;;
8958;SDS011;4514;49.476;8.484;2022-07-19T12:55:28;4.65;;;2.80;;
8958;SDS011;4514;49.476;8.484;2022-07-19T12:57:57;6.45;;;2.58;;
8958;SDS011;4514;49.476;8.484;2022-07-19T13:00:24;4.68;;;2.70;;
8958;SDS011;4514;49.476;8.484;2022-07-19T13:02:51;2.65;;;2.45;;
8958;SDS011;4514;49.476;8.484;2022-07-19T13:05:17;4.63;;;2.60;;
8958;SDS011;4514;49.476;8.484;2022-07-19T13:07:48;5.93;;;2.53;;
8958;SDS011;4514;49.476;8.484;2022-07-19T13:10:14;3.25;;;2.72;;
8958;SDS011;4514;49.476;8.484;2022-07-19T13:12:40;2.95;;;2.60;;
8958;SDS011;4514;49.476;8.484;2022-07-19T13:15:07;5.80;;;2.78;;
8958;SDS011;4514;49.476;8.484;2022-07-19T13:17:33;9.13;;;2.95;;
8958;SDS011;4514;49.476;8.484;2022-07-19T13:19:59;6.10;;;2.90;;
8958;SDS011;4514;49.476;8.484;2022-07-19T13:22:24;5.45;;;2.92;;
8958;SDS011;4514;49.476;8.484;2022-07-19T13:24:50;5.10;;;2.72;;
8958;SDS011;4514;49.476;8.484;2022-07-19T13:27:15;3.90;;;2.70;;
8958;SDS011;4514;49.476;8.484;2022-07-19T13:29:42;5.63;;;2.70;;
8958;SDS011;4514;49.476;8.484;2022-07-19T13:32:09;5.78;;;2.50;;
8958;SDS011;4514;49.476;8.484;2022-07-19T13:34:38;7.40;;;2.95;;
8958;SDS011;4514;49.476;8.484;2022-07-19T13:37:06;6.05;;;3.03;;
8958;SDS011;4514;49.476;8.484;2022-07-19T13:39:32;4.68;;;3.03;;
8958;SDS011;4514;49.476;8.484;2022-07-19T13:41:58;4.13;;;2.70;;
8958;SDS011;4514;49.476;8.484;2022-07-19T13:44:24;4.03;;;2.83;;
8958;SDS011;4514;49.476;8.484;2022-07-19T13:46:50;7.20;;;3.03;;
8958;SDS011;4514;49.476;8.484;2022-07-19T13:49:15;4.40;;;2.80;;
8958;SDS011;4514;49.476;8.484;2022-07-19T13:51:41;4.18;;;2.88;;
8958;SDS011;4514;49.476;8.484;2022-07-19T13:54:07;5.40;;;3.10;;
8958;SDS011;4514;49.476;8.484;2022-07-19T13:56:33;5.10;;;3.00;;
8958;SDS011;4514;49.476;8.484;2022-07-19T13:58:58;4.97;;;2.70;;
8958;SDS011;4514;49.476;8.484;2022-07-19T14:01:26;3.67;;;2.85;;
8958;SDS011;4514;49.476;8.484;2022-07-19T14:03:55;5.75;;;2.95;;
8958;SDS011;4514;49.476;8.484;2022-07-19T14:06:26;3.45;;;2.75;;
8958;SDS011;4514;49.476;8.484;2022-07-19T14:08:53;7.18;;;3.33;;
8958;SDS011;4514;49.476;8.484;2022-07-19T14:11:19;6.20;;;3.35;;
8958;SDS011;4514;49.476;8.484;2022-07-19T14:13:45;3.83;;;2.78;;
8958;SDS011;4514;49.476;8.484;2022-07-19T14:16:11;5.57;;;3.15;;
8958;SDS011;4514;49.476;8.484;2022-07-19T14:18:37;7.45;;;3.17;;
8958;SDS011;4514;49.476;8.484;2022-07-19T14:21:04;4.28;;;2.97;;
8958;SDS011;4514;49.476;8.484;2022-07-19T14:23:30;5.78;;;3.33;;
8958;SDS011;4514;49.476;8.484;2022-07-19T14:25:56;6.35;;;2.88;;
8958;SDS011;4514;49.476;8.484;2022-07-19T14:28:22;8.27;;;3.20;;
8958;SDS011;4514;49.476;8.484;2022-07-19T14:30:50;7.15;;;3.25;;
8958;SDS011;4514;49.476;8.484;2022-07-19T14:33:16;4.80;;;3.38;;
8958;SDS011;4514;49.476;8.484;2022-07-19T14:35:42;5.30;;;3.47;;
8958;SDS011;4514;49.476;8.484;2022-07-19T14:38:07;5.10;;;3.33;;
8958;SDS011;4514;49.476;8.484;2022-07-19T14:40:34;4.22;;;3.67;;
8958;SDS011;4514;49.476;8.484;2022-07-19T14:42:59;4.63;;;3.53;;
8958;SDS011;4514;49.476;8.484;2022-07-19T14:45:25;3.80;;;3.20;;
8958;SDS011;4514;49.476;8.484;2022-07-19T14:47:54;4.18;;;3.38;;
8958;SDS011;4514;49.476;8.484;2022-07-19T14:50:19;5.60;;;3.30;;
8958;SDS011;4514;49.476;8.484;2022-07-19T14:52:45;8.88;;;3.50;;
8958;SDS011;4514;49.476;8.484;2022-07-19T14:55:10;7.78;;;3.63;;
8958;SDS011;4514;49.476;8.484;2022-07-19T14:57:36;3.85;;;3.28;;
8958;SDS011;4514;49.476;8.484;2022-07-19T15:00:05;3.53;;;3.25;;
8958;SDS011;4514;49.476;8.484;2022-07-19T15:02:32;4.72;;;3.65;;
8958;SDS011;4514;49.476;8.484;2022-07-19T15:04:58;3.88;;;3.50;;
8958;SDS011;4514;49.476;8.484;2022-07-19T15:07:23;7.30;;;3.55;;
8958;SDS011;4514;49.476;8.484;2022-07-19T15:09:51;5.68;;;3.50;;
8958;SDS011;4514;49.476;8.484;2022-07-19T15:12:17;6.10;;;3.80;;
8958;SDS011;4514;49.476;8.484;2022-07-19T15:14:43;5.97;;;3.67;;
8958;SDS011;4514;49.476;8.484;2022-07-19T15:17:09;3.60;;;3.30;;
8958;SDS011;4514;49.476;8.484;2022-07-19T15:19:35;5.70;;;3.90;;
8958;SDS011;4514;49.476;8.484;2022-07-19T15:22:01;5.97;;;3.38;;
8958;SDS011;4514;49.476;8.484;2022-07-19T15:24:29;5.60;;;3.50;;
8958;SDS011;4514;49.476;8.484;2022-07-19T15:26:55;4.18;;;3.75;;
8958;SDS011;4514;49.476;8.484;2022-07-19T15:29:23;5.57;;;3.83;;
8958;SDS011;4514;49.476;8.484;2022-07-19T15:31:48;4.93;;;3.55;;
8958;SDS011;4514;49.476;8.484;2022-07-19T15:34:14;8.13;;;3.45;;
8958;SDS011;4514;49.476;8.484;2022-07-19T15:36:44;6.65;;;4.75;;
8958;SDS011;4514;49.476;8.484;2022-07-19T15:39:09;4.68;;;3.80;;